Time;durP1;ratioP1;P1;durP2;ratioP2;P2;SDS_P1;SDS_P2;PMS_P1;PMS_P2;Temp;Humidity;BMP_temperature;BMP_pressure;BME280_temperature;BME280_humidity;BME280_pressure;Samples;Min_cycle;Max_cycle;Signal;HPM_P1;HPM_P2
2021/02/27 00:09:45;;;;;;;15.4;8.3;;;;;;;2.42;100;99845.87;;;;
2021/02/27 00:19:42;;;;;;;6.8;5.4;;;;;;;2.63;100;99839.25;;;;
2021/02/27 00:29:40;;;;;;;7.7;6.3;;;;;;;2.71;100;99852.23;;;;
2021/02/27 00:39:38;;;;;;;11.9;8;;;;;;;2.74;100;99845.66;;;;
2021/02/27 00:49:38;;;;;;;8.8;6.3;;;;;;;2.87;100;99843.63;;;;
2021/02/27 00:59:34;;;;;;;12.9;9.3;;;;;;;2.83;100;99834.47;;;;
2021/02/27 01:09:31;;;;;;;15.8;8.6;;;;;;;2.84;100;99830.77;;;;
2021/02/27 01:19:29;;;;;;;13.1;9.2;;;;;;;2.84;100;99830.77;;;;
2021/02/27 01:29:27;;;;;;;22.4;17;;;;;;;2.78;100;99833.5;;;;
2021/02/27 01:39:25;;;;;;;19;14.5;;;;;;;2.83;100;99829.14;;;;
2021/02/27 01:49:22;;;;;;;16.5;12.7;;;;;;;2.95;100;99824.65;;;;
2021/02/27 01:59:20;;;;;;;18.5;15.2;;;;;;;2.98;100;99818.89;;;;
2021/02/27 02:09:18;;;;;;;18.8;16.2;;;;;;;3.03;100;99820.84;;;;
2021/02/27 02:19:16;;;;;;;17.9;15.5;;;;;;;3.1;100;99818.08;;;;
2021/02/27 02:29:14;;;;;;;22.5;17.9;;;;;;;3.1;100;99826.89;;;;
2021/02/27 02:39:12;;;;;;;26.3;19.6;;;;;;;3.13;100;99826.43;;;;
2021/02/27 02:49:10;;;;;;;27.3;20.4;;;;;;;3.05;100;99827.56;;;;
2021/02/27 02:59:08;;;;;;;26.6;20.4;;;;;;;3.04;100;99819.82;;;;
2021/02/27 03:09:06;;;;;;;33.4;22.9;;;;;;;3.12;100;99816.84;;;;
2021/02/27 03:19:04;;;;;;;27.7;21.7;;;;;;;3.16;100;99833.17;;;;
2021/02/27 03:29:01;;;;;;;29.1;23.3;;;;;;;3.2;100;99815.66;;;;
2021/02/27 03:38:59;;;;;;;25.8;22.9;;;;;;;3.24;100;99830.16;;;;
2021/02/27 03:48:57;;;;;;;32.1;24.6;;;;;;;3.27;100;99835.02;;;;
2021/02/27 03:58:55;;;;;;;33;21.6;;;;;;;3.38;100;99834.23;;;;
2021/02/27 04:08:53;;;;;;;39.5;27.6;;;;;;;3.37;100;99841.41;;;;
2021/02/27 04:18:51;;;;;;;30.9;24.1;;;;;;;3.38;100;99837.71;;;;
2021/02/27 04:28:49;;;;;;;41.5;29.2;;;;;;;3.34;100;99843.72;;;;
2021/02/27 04:38:47;;;;;;;29.1;24.7;;;;;;;3.39;100;99835.86;;;;
2021/02/27 04:48:45;;;;;;;32.3;26.6;;;;;;;3.45;100;99842.93;;;;
2021/02/27 04:58:43;;;;;;;31.5;24.9;;;;;;;3.53;100;99859.41;;;;
2021/02/27 05:08:41;;;;;;;42.7;26.3;;;;;;;3.49;100;99858.23;;;;
2021/02/27 05:18:39;;;;;;;29.9;26.7;;;;;;;3.54;100;99868.19;;;;
2021/02/27 05:28:36;;;;;;;31.6;25.5;;;;;;;3.55;100;99883.97;;;;
2021/02/27 05:38:34;;;;;;;29.4;24.8;;;;;;;3.55;100;99885.81;;;;
2021/02/27 05:48:37;;;;;;;29.1;24.2;;;;;;;3.58;100;99895.2;;;;
2021/02/27 05:58:32;;;;;;;31.5;27;;;;;;;3.61;100;99910.76;;;;
2021/02/27 06:08:28;;;;;;;34.2;25.1;;;;;;;3.66;100;99918.86;;;;
2021/02/27 06:18:26;;;;;;;26.6;22.6;;;;;;;3.69;100;99940.54;;;;
2021/02/27 06:28:24;;;;;;;29;23.1;;;;;;;3.7;100;99934.17;;;;
2021/02/27 06:38:22;;;;;;;37.1;26.6;;;;;;;3.73;100;99968.38;;;;
2021/02/27 06:48:20;;;;;;;33.5;24.7;;;;;;;3.77;100;99969.55;;;;
2021/02/27 06:58:19;;;;;;;28.1;21.9;;;;;;;3.86;100;99978;;;;
2021/02/27 07:08:16;;;;;;;32.1;24.8;;;;;;;3.95;100;99988.13;;;;
2021/02/27 07:18:14;;;;;;;47.3;27.8;;;;;;;4.08;100;100004.9;;;;
2021/02/27 07:28:13;;;;;;;29.9;25.2;;;;;;;4.06;100;99999.86;;;;
2021/02/27 07:38:11;;;;;;;40.3;22.5;;;;;;;4.17;100;100024.9;;;;
2021/02/27 07:48:09;;;;;;;35;23.3;;;;;;;4.18;100;100023.9;;;;
2021/02/27 07:58:07;;;;;;;33;18.8;;;;;;;4.19;100;100041.5;;;;
2021/02/27 08:08:05;;;;;;;23.8;18.1;;;;;;;4.27;100;100043.8;;;;
2021/02/27 08:18:03;;;;;;;29.8;19.9;;;;;;;4.31;100;100042.3;;;;
2021/02/27 08:28:01;;;;;;;27.7;17;;;;;;;4.31;100;100055.7;;;;
2021/02/27 08:37:59;;;;;;;19.5;16.5;;;;;;;4.39;100;100058;;;;
2021/02/27 08:47:57;;;;;;;24.3;16.6;;;;;;;4.49;100;100052.9;;;;
2021/02/27 08:57:55;;;;;;;29.6;15.5;;;;;;;4.38;99.69824;100075;;;;
2021/02/27 09:07:53;;;;;;;29.4;15.8;;;;;;;4.4;99.86816;100070.3;;;;
2021/02/27 09:17:52;;;;;;;17;13;;;;;;;4.46;99.33008;100085.4;;;;
2021/02/27 09:27:50;;;;;;;17.2;13.5;;;;;;;4.41;99.6377;100102.1;;;;
2021/02/27 09:37:48;;;;;;;24.8;14;;;;;;;4.44;100;100122.2;;;;
2021/02/27 09:47:46;;;;;;;21.5;13.3;;;;;;;4.3;100;100126.9;;;;
2021/02/27 09:57:48;;;;;;;18.1;13.2;;;;;;;4.19;100;100158.9;;;;
2021/02/27 10:07:42;;;;;;;22.4;16.8;;;;;;;4.34;100;100152.1;;;;
2021/02/27 10:17:40;;;;;;;20.8;16.2;;;;;;;4.46;100;100168.1;;;;
2021/02/27 10:27:38;;;;;;;24.9;17.7;;;;;;;4.52;100;100170.7;;;;
2021/02/27 10:37:36;;;;;;;23.2;13.7;;;;;;;4.93;100;100159.1;;;;
2021/02/27 10:47:34;;;;;;;18.2;12.3;;;;;;;5.24;98.69141;100133.9;;;;
2021/02/27 10:57:33;;;;;;;24.2;14;;;;;;;5.59;95.88867;100160.6;;;;
2021/02/27 11:07:33;;;;;;;24.4;15.4;;;;;;;5.82;94.85254;100144.5;;;;
2021/02/27 11:17:31;;;;;;;27.7;15.9;;;;;;;5.94;92.45703;100153.3;;;;
2021/02/27 11:27:27;;;;;;;26.7;18.3;;;;;;;6.2;91.9209;100135;;;;
2021/02/27 11:37:25;;;;;;;27.7;16.5;;;;;;;5.89;92.2793;100139.8;;;;
2021/02/27 11:47:24;;;;;;;29.5;18.7;;;;;;;6.19;91.48535;100144.1;;;;
2021/02/27 11:57:22;;;;;;;22.7;16.2;;;;;;;6.68;89.27441;100156.7;;;;
2021/02/27 12:07:20;;;;;;;21.4;16.4;;;;;;;6.76;88.93457;100153.7;;;;
2021/02/27 12:17:19;;;;;;;20.6;16.8;;;;;;;6.46;89.21777;100147.8;;;;
2021/02/27 12:27:17;;;;;;;27.7;18.4;;;;;;;6.68;88.66211;100146;;;;
2021/02/27 12:37:16;;;;;;;17.1;14.9;;;;;;;6.94;87.03125;100145.3;;;;
2021/02/27 12:47:14;;;;;;;18.8;15.7;;;;;;;6.89;87.07617;100156;;;;
2021/02/27 12:57:13;;;;;;;20.3;12.5;;;;;;;6.82;86.60645;100176.8;;;;
2021/02/27 13:07:11;;;;;;;18.6;12;;;;;;;6.27;86.875;100189.2;;;;
2021/02/27 13:17:09;;;;;;;19;12.8;;;;;;;6.26;87.70605;100193;;;;
2021/02/27 13:27:08;;;;;;;14.5;9.5;;;;;;;6.14;86.30176;100182.3;;;;
2021/02/27 13:37:06;;;;;;;16.3;12.5;;;;;;;6.53;85.00879;100177.9;;;;
2021/02/27 13:47:04;;;;;;;19.9;13.9;;;;;;;6.36;87.08203;100177.9;;;;
2021/02/27 13:57:03;;;;;;;17.2;13.3;;;;;;;6.48;85.8125;100189.4;;;;
2021/02/27 14:07:01;;;;;;;24.9;13.1;;;;;;;6.66;85.53516;100179.5;;;;
2021/02/27 14:16:59;;;;;;;30.2;14.3;;;;;;;6.52;85.62988;100192.4;;;;
2021/02/27 14:26:58;;;;;;;20.9;15;;;;;;;6.6;85.72559;100186.6;;;;
2021/02/27 14:36:57;;;;;;;26.5;16.4;;;;;;;6.39;86.54102;100193.5;;;;
2021/02/27 14:46:55;;;;;;;20.1;14.2;;;;;;;6.28;87.12109;100205;;;;
2021/02/27 14:56:53;;;;;;;19.9;14.9;;;;;;;6.23;87.44434;100188.9;;;;
2021/02/27 15:06:51;;;;;;;20.8;12.2;;;;;;;6.2;85.99121;100200.1;;;;
2021/02/27 15:16:49;;;;;;;15.6;10.4;;;;;;;6.27;83.79883;100199.9;;;;
2021/02/27 15:26:48;;;;;;;18;12.4;;;;;;;6.24;85.28516;100219.2;;;;
2021/02/27 15:36:46;;;;;;;15;7.6;;;;;;;6.03;82.71777;100221.5;;;;
2021/02/27 15:46:44;;;;;;;15.6;7.7;;;;;;;5.79;82.75977;100222.5;;;;
2021/02/27 15:56:42;;;;;;;14.1;10.4;;;;;;;5.52;84.30859;100224.1;;;;
2021/02/27 16:06:41;;;;;;;16.9;11.2;;;;;;;5.32;84.70605;100251.2;;;;
2021/02/27 16:16:39;;;;;;;15.4;11.7;;;;;;;5.11;85.76465;100262.4;;;;
2021/02/27 16:26:37;;;;;;;20.3;12.6;;;;;;;4.92;87.3125;100287.6;;;;
2021/02/27 16:36:35;;;;;;;13.7;12.2;;;;;;;4.95;88.01953;100297.8;;;;
2021/02/27 16:46:34;;;;;;;21.9;14.8;;;;;;;4.9;89.75195;100295.8;;;;
2021/02/27 16:56:34;;;;;;;20.2;16.8;;;;;;;4.82;90.88867;100312.2;;;;
2021/02/27 17:06:29;;;;;;;26.1;18.9;;;;;;;4.69;91.81152;100311.6;;;;
2021/02/27 17:16:27;;;;;;;26.9;20.2;;;;;;;4.58;92.7207;100319.3;;;;
2021/02/27 17:26:26;;;;;;;32.8;20.4;;;;;;;4.34;93.22266;100336.3;;;;
2021/02/27 17:36:24;;;;;;;41.6;27.2;;;;;;;4.04;95.30176;100346;;;;
2021/02/27 17:46:22;;;;;;;32.4;22.5;;;;;;;3.91;96.17969;100355;;;;
2021/02/27 17:56:20;;;;;;;33.7;22.6;;;;;;;3.83;96.62598;100352.6;;;;
2021/02/27 18:06:18;;;;;;;34.8;22.5;;;;;;;3.67;97.44824;100355;;;;
2021/02/27 18:16:16;;;;;;;35;25.9;;;;;;;3.57;98.4082;100347.6;;;;
2021/02/27 18:26:14;;;;;;;37.9;24.1;;;;;;;3.46;98.71387;100372.3;;;;
2021/02/27 18:36:12;;;;;;;40.7;24.8;;;;;;;3.39;99.22754;100382.1;;;;
2021/02/27 18:46:10;;;;;;;47.9;25.3;;;;;;;3.43;99.2041;100396.7;;;;
2021/02/27 18:56:08;;;;;;;41.7;25.5;;;;;;;3.52;98.93848;100396.2;;;;
2021/02/27 19:06:05;;;;;;;31;25.9;;;;;;;3.47;98.88379;100398.7;;;;
2021/02/27 19:16:03;;;;;;;38.1;27.4;;;;;;;3.41;99.0459;100396.9;;;;
2021/02/27 19:26:01;;;;;;;41;28.2;;;;;;;3.34;99.51465;100404.1;;;;
2021/02/27 19:35:59;;;;;;;41.1;27.6;;;;;;;3.38;99.63477;100413.3;;;;
2021/02/27 19:45:57;;;;;;;41.9;27.2;;;;;;;3.42;99.57715;100425.2;;;;
2021/02/27 19:55:55;;;;;;;34.7;27.5;;;;;;;3.34;99.96387;100421.9;;;;
2021/02/27 20:05:54;;;;;;;41.3;27.5;;;;;;;3.18;100;100418;;;;
2021/02/27 20:15:51;;;;;;;34.7;27.6;;;;;;;3.03;100;100441.4;;;;
2021/02/27 20:25:49;;;;;;;40.8;30.5;;;;;;;2.76;100;100440.7;;;;
2021/02/27 20:35:47;;;;;;;43.4;32.2;;;;;;;2.77;100;100452.2;;;;
2021/02/27 20:45:44;;;;;;;42;31.1;;;;;;;2.81;100;100453.4;;;;
2021/02/27 20:55:42;;;;;;;51.3;35.6;;;;;;;2.7;100;100449.5;;;;
2021/02/27 21:05:40;;;;;;;55.7;35.9;;;;;;;2.7;100;100454.9;;;;
2021/02/27 21:15:38;;;;;;;40.6;35.9;;;;;;;2.73;100;100448.3;;;;
2021/02/27 21:25:37;;;;;;;46.5;30.8;;;;;;;2.8;100;100468.5;;;;
2021/02/27 21:35:34;;;;;;;45.9;34;;;;;;;2.87;100;100472;;;;
2021/02/27 21:45:34;;;;;;;35.5;27.5;;;;;;;3.03;100;100474.2;;;;
2021/02/27 21:55:30;;;;;;;38.9;25.6;;;;;;;3.09;100;100485;;;;
2021/02/27 22:05:28;;;;;;;45.5;28.7;;;;;;;3.07;100;100484.4;;;;
2021/02/27 22:15:25;;;;;;;44.1;30.3;;;;;;;2.78;100;100480.4;;;;
2021/02/27 22:25:23;;;;;;;40.2;29.4;;;;;;;2.62;100;100502.2;;;;
2021/02/27 22:35:21;;;;;;;45.3;32.6;;;;;;;2.48;100;100507.5;;;;
2021/02/27 22:45:19;;;;;;;35.7;30.1;;;;;;;2.33;100;100501.6;;;;
2021/02/27 22:55:17;;;;;;;48.6;36.2;;;;;;;2.17;100;100511.9;;;;
2021/02/27 23:05:15;;;;;;;38.8;31.2;;;;;;;2.16;100;100513.7;;;;
2021/02/27 23:15:12;;;;;;;53.2;39.1;;;;;;;2.36;100;100529.7;;;;
2021/02/27 23:25:10;;;;;;;37.3;33.1;;;;;;;2.49;100;100525.1;;;;
2021/02/27 23:35:08;;;;;;;42.9;31;;;;;;;2.59;100;100534.5;;;;
2021/02/27 23:45:06;;;;;;;41;31;;;;;;;2.65;100;100550.5;;;;
2021/02/27 23:55:04;;;;;;;41.9;29.3;;;;;;;2.75;100;100553.5;;;;
